Time;durP1;ratioP1;P1;durP2;ratioP2;P2;SDS_P1;SDS_P2;PMS_P1;PMS_P2;Temp;Humidity;BMP_temperature;BMP_pressure;BME280_temperature;BME280_humidity;BME280_pressure;Samples;Min_cycle;Max_cycle;Signal;HPM_P1;HPM_P2
2022/08/03 00:00:06;;;;;;;0.30;0.30;;;21.70;96.00;;;;;;4953782;28;20102;-67
2022/08/03 00:02:32;;;;;;;0.43;0.40;;;21.70;96.10;;;;;;4952362;29;20077;-67
2022/08/03 00:04:57;;;;;;;1.65;0.70;;;21.60;96.50;;;;;;4952842;29;20496;-67
2022/08/03 00:07:23;;;;;;;0.10;0.10;;;21.40;97.30;;;;;;4953835;28;20035;-67
2022/08/03 00:09:49;;;;;;;0.08;0.08;;;21.40;98.40;;;;;;4953608;28;20419;-67
2022/08/03 00:12:15;;;;;;;0.25;0.20;;;21.40;99.10;;;;;;4936373;29;20046;-67
2022/08/03 00:14:41;;;;;;;0.00;0.00;;;21.30;99.90;;;;;;4952522;29;20574;-66
2022/08/03 00:17:06;;;;;;;0.20;0.17;;;21.30;99.90;;;;;;4952739;29;20027;-67
2022/08/03 00:19:32;;;;;;;0.00;0.00;;;21.30;99.90;;;;;;4953028;28;20046;-66
2022/08/03 00:21:58;;;;;;;0.35;0.20;;;21.40;99.90;;;;;;4952390;29;20114;-67
2022/08/03 00:24:23;;;;;;;0.03;0.03;;;21.40;99.90;;;;;;4953477;28;20035;-67
2022/08/03 00:26:49;;;;;;;0.20;0.17;;;21.40;99.90;;;;;;4953392;28;20039;-67
2022/08/03 00:29:15;;;;;;;0.50;0.50;;;21.30;99.90;;;;;;4952426;28;20488;-67
2022/08/03 00:31:41;;;;;;;0.00;0.00;;;21.40;99.90;;;;;;4953765;28;20050;-67
2022/08/03 00:34:06;;;;;;;0.28;0.15;;;21.30;99.90;;;;;;4952072;28;20042;-67
2022/08/03 00:36:32;;;;;;;0.38;0.20;;;21.20;99.90;;;;;;4954011;28;20092;-67
2022/08/03 00:38:58;;;;;;;0.25;0.25;;;21.20;99.90;;;;;;4953141;28;20638;-67
2022/08/03 00:41:23;;;;;;;0.40;0.20;;;21.10;99.90;;;;;;4952185;29;20162;-67
2022/08/03 00:43:49;;;;;;;1.17;0.77;;;20.80;99.90;;;;;;4953109;28;20031;-67
2022/08/03 00:46:15;;;;;;;0.00;0.00;;;20.70;99.90;;;;;;4952082;29;20395;-67
2022/08/03 00:48:41;;;;;;;1.80;1.65;;;20.70;99.90;;;;;;4951573;28;20491;-67
2022/08/03 00:51:07;;;;;;;0.98;0.73;;;20.80;99.90;;;;;;4953233;28;20031;-67
2022/08/03 00:53:34;;;;;;;0.30;0.30;;;20.80;99.90;;;;;;4951645;29;20027;-67
2022/08/03 00:56:00;;;;;;;0.13;0.10;;;20.90;99.90;;;;;;4953462;28;20031;-65
2022/08/03 00:58:26;;;;;;;0.38;0.30;;;20.90;99.90;;;;;;4953069;28;20501;-66
2022/08/03 01:00:52;;;;;;;0.00;0.00;;;21.00;99.90;;;;;;4951576;29;20028;-65
2022/08/03 01:03:18;;;;;;;0.10;0.10;;;20.90;99.90;;;;;;4952566;28;20368;-65
2022/08/03 01:05:59;;;;;;;0.82;0.38;;;20.90;99.90;;;;;;4960348;28;20066;-66
2022/08/03 01:08:47;;;;;;;1.75;0.65;;;20.90;99.90;;;;;;4961151;28;20443;-66
2022/08/03 01:11:44;;;;;;;0.00;0.00;;;20.80;99.90;;;;;;4971168;28;20029;-66
2022/08/03 01:14:19;;;;;;;0.00;0.00;;;20.90;99.90;;;;;;4972181;28;20114;-66
2022/08/03 01:17:00;;;;;;;0.00;0.00;;;20.80;99.90;;;;;;4953415;28;20039;-67
2022/08/03 01:19:48;;;;;;;0.52;0.40;;;20.90;99.90;;;;;;4985676;23;20055;-64
2022/08/03 01:23:00;;;;;;;0.20;0.20;;;20.80;99.90;;;;;;4980224;28;20031;-64
2022/08/03 01:26:09;;;;;;;0.80;0.80;;;20.80;99.90;;;;;;4990199;28;20307;-64
2022/08/03 01:28:57;;;;;;;6.07;1.27;;;20.80;99.90;;;;;;4991312;28;20066;-66
2022/08/03 01:31:30;;;;;;;0.32;0.32;;;20.90;99.90;;;;;;4971071;28;20058;-64
2022/08/03 01:34:01;;;;;;;0.20;0.13;;;21.00;99.90;;;;;;4985990;28;20041;-64
2022/08/03 01:36:37;;;;;;;0.00;0.00;;;21.20;99.90;;;;;;4986967;28;20161;-64
2022/08/03 01:39:08;;;;;;;0.15;0.15;;;21.10;99.90;;;;;;4986332;28;20031;-64
2022/08/03 01:41:58;;;;;;;0.00;0.00;;;21.20;99.90;;;;;;4978512;28;20031;-64
2022/08/03 01:44:29;;;;;;;0.70;0.35;;;21.00;99.90;;;;;;4956165;28;20027;-64
2022/08/03 01:46:58;;;;;;;;;;;21.00;99.90;;;;;;4955527;29;20505;-64
2022/08/03 01:49:26;;;;;;;0.30;0.20;;;20.90;99.90;;;;;;4954373;29;19914;-64
2022/08/03 01:51:52;;;;;;;0.00;0.00;;;20.90;99.90;;;;;;4956222;29;20090;-64
2022/08/03 01:54:19;;;;;;;5.90;1.20;;;20.90;99.90;;;;;;4954610;29;20118;-64
2022/08/03 01:56:47;;;;;;;0.38;0.38;;;20.90;99.90;;;;;;4954883;29;20027;-64
2022/08/03 01:59:17;;;;;;;0.00;0.00;;;21.00;99.90;;;;;;4954635;29;20027;-64
2022/08/03 02:01:45;;;;;;;2.03;0.95;;;21.10;99.90;;;;;;4954638;29;20031;-64
2022/08/03 02:04:13;;;;;;;0.35;0.35;;;21.20;99.90;;;;;;4955557;29;20035;-64
2022/08/03 02:06:40;;;;;;;0.00;0.00;;;21.00;99.90;;;;;;4954661;29;20035;-64
2022/08/03 02:09:07;;;;;;;0.00;0.00;;;20.90;99.90;;;;;;4953872;29;20114;-64
2022/08/03 02:11:34;;;;;;;0.10;0.10;;;20.90;99.90;;;;;;4954680;29;20098;-64
2022/08/03 02:14:04;;;;;;;0.25;0.15;;;20.90;99.90;;;;;;4954208;29;20035;-64
2022/08/03 02:16:32;;;;;;;0.10;0.10;;;20.80;99.90;;;;;;4940782;28;20039;-64
2022/08/03 02:19:00;;;;;;;0.70;0.55;;;20.80;99.90;;;;;;4989295;28;20105;-64
2022/08/03 02:21:31;;;;;;;0.00;0.00;;;20.80;99.90;;;;;;4989539;28;20046;-64
2022/08/03 02:23:57;;;;;;;0.08;0.08;;;20.80;99.90;;;;;;4974390;28;20113;-64
2022/08/03 02:26:27;;;;;;;0.00;0.00;;;20.80;99.90;;;;;;4973503;28;20121;-64
2022/08/03 02:28:58;;;;;;;0.25;0.25;;;20.90;99.90;;;;;;4988627;28;20057;-64
2022/08/03 02:31:29;;;;;;;0.10;0.10;;;21.00;99.90;;;;;;4989325;28;20030;-64
2022/08/03 02:34:03;;;;;;;0.40;0.35;;;21.00;99.90;;;;;;4989277;28;20054;-64
2022/08/03 02:36:33;;;;;;;0.00;0.00;;;20.90;99.90;;;;;;4989447;28;20491;-64
2022/08/03 02:39:00;;;;;;;0.20;0.20;;;20.70;99.90;;;;;;4972805;28;20403;-64
2022/08/03 02:41:48;;;;;;;0.20;0.20;;;20.40;99.90;;;;;;4989365;28;20117;-64
2022/08/03 02:44:25;;;;;;;0.10;0.10;;;20.20;99.90;;;;;;4988916;28;20034;-64
2022/08/03 02:46:55;;;;;;;0.10;0.10;;;19.90;99.90;;;;;;4988656;28;20525;-64
2022/08/03 02:49:24;;;;;;;0.80;0.38;;;19.80;99.90;;;;;;4988774;28;20038;-64
2022/08/03 02:51:53;;;;;;;0.00;0.00;;;19.70;99.90;;;;;;4988463;28;20125;-64
2022/08/03 02:54:23;;;;;;;0.15;0.15;;;19.70;99.90;;;;;;4988660;28;20045;-64
2022/08/03 02:56:51;;;;;;;1.65;0.90;;;19.80;99.90;;;;;;4988668;28;20023;-64
2022/08/03 02:59:18;;;;;;;0.93;0.70;;;19.80;99.90;;;;;;4972596;28;20093;-63
2022/08/03 03:01:45;;;;;;;0.00;0.00;;;19.80;99.90;;;;;;4989183;28;20031;-63
2022/08/03 03:04:12;;;;;;;0.65;0.55;;;19.90;99.90;;;;;;4988913;28;20047;-63
2022/08/03 03:06:39;;;;;;;1.65;0.88;;;20.10;99.90;;;;;;4989084;28;20030;-63
2022/08/03 03:09:06;;;;;;;0.15;0.15;;;20.10;99.90;;;;;;4972262;28;20023;-63
2022/08/03 03:11:36;;;;;;;0.10;0.10;;;20.10;99.90;;;;;;4989085;28;20110;-64
2022/08/03 03:14:03;;;;;;;0.90;0.50;;;20.10;99.90;;;;;;4973883;28;20054;-63
2022/08/03 03:16:31;;;;;;;0.17;0.17;;;19.80;99.90;;;;;;4954900;28;20344;-64
2022/08/03 03:18:58;;;;;;;1.27;0.60;;;19.80;99.90;;;;;;4953910;28;20455;-64
2022/08/03 03:21:25;;;;;;;3.50;1.00;;;19.80;99.90;;;;;;4953553;29;20039;-64
2022/08/03 03:23:52;;;;;;;0.68;0.40;;;19.70;99.90;;;;;;4952780;29;20050;-64
2022/08/03 03:26:18;;;;;;;0.00;0.00;;;19.60;99.90;;;;;;4953063;29;20058;-64
2022/08/03 03:28:44;;;;;;;0.00;0.00;;;19.60;99.90;;;;;;4952706;29;20031;-63
2022/08/03 03:31:10;;;;;;;0.55;0.55;;;19.70;99.90;;;;;;4953146;29;20038;-65
2022/08/03 03:33:37;;;;;;;0.40;0.40;;;19.80;99.90;;;;;;4952759;29;20055;-64
2022/08/03 03:36:05;;;;;;;0.20;0.20;;;19.80;99.90;;;;;;4953298;29;20031;-64
2022/08/03 03:38:32;;;;;;;0.55;0.30;;;19.70;99.90;;;;;;4936702;29;20054;-64
2022/08/03 03:40:58;;;;;;;0.38;0.28;;;19.80;99.90;;;;;;4952458;29;20166;-64
2022/08/03 03:43:24;;;;;;;0.75;0.50;;;19.80;99.90;;;;;;4952547;29;20496;-64
2022/08/03 03:45:52;;;;;;;0.43;0.43;;;19.70;99.90;;;;;;4952814;29;20098;-64
2022/08/03 03:48:18;;;;;;;2.38;1.02;;;19.70;99.90;;;;;;4953176;29;20030;-64
2022/08/03 03:50:45;;;;;;;13.23;0.70;;;19.80;99.90;;;;;;4952343;29;20031;-64
2022/08/03 03:53:13;;;;;;;0.15;0.15;;;19.80;99.90;;;;;;4951973;29;20027;-64
2022/08/03 03:55:40;;;;;;;2.08;1.33;;;19.80;99.90;;;;;;4952875;29;20377;-64
2022/08/03 03:58:07;;;;;;;2.65;0.30;;;19.80;99.90;;;;;;4960584;28;20027;-64
2022/08/03 04:00:33;;;;;;;0.15;0.15;;;19.90;99.90;;;;;;4967668;28;20057;-64
2022/08/03 04:02:59;;;;;;;0.73;0.30;;;19.90;99.90;;;;;;4971441;28;20049;-64
2022/08/03 04:11:35;;;;;;;0.00;0.00;;;19.80;99.90;;;;;;4972431;28;20542;-65
2022/08/03 04:14:18;;;;;;;0.95;0.95;;;19.80;99.90;;;;;;4971485;28;20506;-65
2022/08/03 04:16:49;;;;;;;0.00;0.00;;;19.90;99.90;;;;;;4952829;28;20046;-65
2022/08/03 04:19:28;;;;;;;;;;;19.90;99.90;;;;;;4968277;28;20081;-65
2022/08/03 04:21:59;;;;;;;0.10;0.10;;;20.10;99.90;;;;;;4952443;29;19916;-64
2022/08/03 04:24:45;;;;;;;0.30;0.30;;;20.30;99.90;;;;;;4967188;28;20488;-64
2022/08/03 04:27:16;;;;;;;0.88;0.63;;;20.10;99.90;;;;;;4967686;28;20385;-64
2022/08/03 04:29:48;;;;;;;2.20;1.25;;;20.00;99.90;;;;;;4967527;28;20399;-64
2022/08/03 04:32:15;;;;;;;4.63;0.57;;;20.00;99.90;;;;;;4952999;29;20392;-63
2022/08/03 04:34:41;;;;;;;0.20;0.20;;;19.80;99.90;;;;;;4952202;29;20043;-63
2022/08/03 04:37:17;;;;;;;0.35;0.35;;;19.70;99.90;;;;;;4953299;29;20031;-63
2022/08/03 04:39:47;;;;;;;0.30;0.28;;;19.60;99.90;;;;;;4966843;28;20042;-65
2022/08/03 04:42:15;;;;;;;0.00;0.00;;;19.70;99.90;;;;;;4952714;29;20031;-64
2022/08/03 04:44:44;;;;;;;0.10;0.10;;;19.70;99.90;;;;;;4953212;29;20170;-64
2022/08/03 04:47:09;;;;;;;2.53;0.45;;;19.80;99.90;;;;;;4967689;28;20085;-63
2022/08/03 04:49:37;;;;;;;0.55;0.52;;;19.70;99.90;;;;;;4952624;29;20027;-63
2022/08/03 04:52:06;;;;;;;0.00;0.00;;;19.80;99.90;;;;;;4967940;28;20023;-63
2022/08/03 04:54:42;;;;;;;0.00;0.00;;;19.80;99.90;;;;;;4967532;28;20030;-64
2022/08/03 04:57:10;;;;;;;0.00;0.00;;;20.00;99.90;;;;;;4953358;29;20038;-65
2022/08/03 04:59:37;;;;;;;0.10;0.10;;;20.20;99.90;;;;;;4967083;28;20029;-64
2022/08/03 05:02:03;;;;;;;0.20;0.20;;;20.50;99.90;;;;;;4952652;29;20027;-64
2022/08/03 05:04:29;;;;;;;0.00;0.00;;;20.80;99.90;;;;;;4952519;29;20038;-64
2022/08/03 05:06:54;;;;;;;0.05;0.05;;;21.00;99.90;;;;;;4968113;28;20027;-64
2022/08/03 05:09:20;;;;;;;0.05;0.03;;;21.20;99.90;;;;;;4952160;29;20027;-64
2022/08/03 05:11:45;;;;;;;0.20;0.10;;;21.40;99.90;;;;;;4952746;29;20027;-65
2022/08/03 05:14:11;;;;;;;4.78;1.25;;;21.60;99.90;;;;;;4952614;28;20078;-64
2022/08/03 05:16:37;;;;;;;0.00;0.00;;;21.60;99.90;;;;;;4975788;28;20109;-64
2022/08/03 05:19:03;;;;;;;0.03;0.03;;;21.50;99.90;;;;;;4975939;28;20031;-64
2022/08/03 05:21:28;;;;;;;0.22;0.20;;;21.40;99.70;;;;;;4976451;28;20065;-64
2022/08/03 05:23:54;;;;;;;12.27;0.95;;;21.30;99.40;;;;;;4975835;28;20043;-64
2022/08/03 05:26:20;;;;;;;0.45;0.45;;;21.20;99.80;;;;;;4976079;28;20062;-64
2022/08/03 05:28:45;;;;;;;0.45;0.13;;;21.20;99.60;;;;;;4975955;28;20383;-65
2022/08/03 05:31:12;;;;;;;0.45;0.45;;;21.20;99.60;;;;;;4975784;28;20077;-65
2022/08/03 05:33:38;;;;;;;0.35;0.30;;;21.20;99.50;;;;;;4970807;28;20062;-65
2022/08/03 05:36:05;;;;;;;3.55;1.02;;;21.20;99.90;;;;;;4958915;28;20031;-65
2022/08/03 05:38:31;;;;;;;0.25;0.25;;;21.10;99.70;;;;;;4956536;29;20162;-64
2022/08/03 05:40:57;;;;;;;0.05;0.05;;;21.20;99.60;;;;;;4970698;28;20034;-64
2022/08/03 05:43:23;;;;;;;0.00;0.00;;;21.20;99.60;;;;;;4970764;28;20034;-64
2022/08/03 05:45:49;;;;;;;0.10;0.05;;;21.30;99.60;;;;;;4956323;28;20086;-65
2022/08/03 05:48:15;;;;;;;0.10;0.10;;;21.40;98.70;;;;;;4956430;29;20027;-65
2022/08/03 05:50:41;;;;;;;0.50;0.50;;;21.40;98.50;;;;;;4955913;29;20128;-64
2022/08/03 05:53:06;;;;;;;0.00;0.00;;;21.50;98.50;;;;;;4956251;29;20040;-64
2022/08/03 05:55:32;;;;;;;3.60;0.63;;;21.50;97.90;;;;;;4956134;28;20118;-68
2022/08/03 05:57:58;;;;;;;0.03;0.00;;;21.60;97.40;;;;;;4970936;28;20035;-68
2022/08/03 06:00:23;;;;;;;0.22;0.22;;;21.60;97.60;;;;;;4955473;28;20062;-71
2022/08/03 06:02:50;;;;;;;0.00;0.00;;;21.70;97.20;;;;;;4973606;28;20042;-71
2022/08/03 06:05:15;;;;;;;0.35;0.35;;;21.80;96.60;;;;;;4974284;28;20432;-70
2022/08/03 06:07:41;;;;;;;0.75;0.52;;;21.90;96.70;;;;;;4975498;28;20118;-70
2022/08/03 06:10:07;;;;;;;0.10;0.10;;;22.10;96.30;;;;;;4974874;28;20149;-69
2022/08/03 06:12:34;;;;;;;0.95;0.90;;;22.10;96.40;;;;;;4973833;28;20023;-71
2022/08/03 06:15:02;;;;;;;0.10;0.10;;;22.20;96.30;;;;;;4975126;28;20030;-68
2022/08/03 06:17:28;;;;;;;0.30;0.20;;;22.30;96.20;;;;;;4962351;28;20062;-72
2022/08/03 06:19:54;;;;;;;0.47;0.35;;;22.40;95.70;;;;;;4979908;28;20085;-73
2022/08/03 06:22:20;;;;;;;1.35;1.20;;;22.50;95.80;;;;;;4963589;28;20111;-70
2022/08/03 06:24:46;;;;;;;0.00;0.00;;;22.60;95.50;;;;;;4974515;28;20125;-70
2022/08/03 06:27:11;;;;;;;0.13;0.13;;;22.60;95.50;;;;;;4973727;28;20029;-71
2022/08/03 06:29:37;;;;;;;0.35;0.30;;;22.70;95.50;;;;;;4974461;28;20042;-70
2022/08/03 06:32:03;;;;;;;0.98;0.88;;;22.80;95.80;;;;;;4974465;28;20030;-71
2022/08/03 06:34:29;;;;;;;0.15;0.15;;;22.80;95.50;;;;;;4974841;28;20074;-72
2022/08/03 06:36:55;;;;;;;0.00;0.00;;;22.90;95.60;;;;;;4974958;28;20034;-70
2022/08/03 06:39:21;;;;;;;0.05;0.05;;;22.90;95.30;;;;;;4972844;28;20045;-69
2022/08/03 06:41:47;;;;;;;0.22;0.15;;;23.00;95.30;;;;;;4974610;28;20096;-69
2022/08/03 06:44:13;;;;;;;0.00;0.00;;;23.00;94.80;;;;;;4974668;28;20170;-70
2022/08/03 06:46:39;;;;;;;0.20;0.20;;;23.00;95.10;;;;;;4974466;28;20027;-70
2022/08/03 06:49:06;;;;;;;0.45;0.35;;;23.10;95.10;;;;;;4974023;28;20023;-70
2022/08/03 06:51:32;;;;;;;0.60;0.30;;;23.20;94.60;;;;;;4974384;28;20080;-70
2022/08/03 06:53:58;;;;;;;0.00;0.00;;;23.30;94.50;;;;;;4974123;28;20023;-70
2022/08/03 06:56:23;;;;;;;0.00;0.00;;;23.40;94.70;;;;;;4972707;28;20077;-69
2022/08/03 06:58:49;;;;;;;0.95;0.40;;;23.50;94.30;;;;;;4974163;28;20045;-69
2022/08/03 07:01:15;;;;;;;0.08;0.05;;;23.60;94.00;;;;;;4974175;28;20037;-70
2022/08/03 07:03:40;;;;;;;0.22;0.15;;;23.60;94.00;;;;;;4973767;28;20038;-69
2022/08/03 07:06:06;;;;;;;0.20;0.20;;;23.70;93.10;;;;;;4974208;28;20043;-70
2022/08/03 07:08:32;;;;;;;0.30;0.30;;;23.80;93.20;;;;;;4974084;28;20027;-70
2022/08/03 07:10:58;;;;;;;0.10;0.10;;;23.80;93.00;;;;;;4988731;28;20033;-70
2022/08/03 07:13:23;;;;;;;0.10;0.10;;;23.90;93.00;;;;;;4972387;28;20368;-70
2022/08/03 07:15:49;;;;;;;0.28;0.20;;;24.00;93.00;;;;;;4974069;28;20055;-70
2022/08/03 07:18:15;;;;;;;1.10;0.20;;;24.00;92.70;;;;;;4973939;28;20517;-70
2022/08/03 07:20:41;;;;;;;0.20;0.20;;;24.20;92.70;;;;;;4998272;23;20050;-74
2022/08/03 07:23:07;;;;;;;22.13;1.13;;;24.30;92.40;;;;;;4991733;28;20065;-73
2022/08/03 07:25:32;;;;;;;0.10;0.10;;;24.30;92.60;;;;;;4993100;28;20036;-73
2022/08/03 07:27:58;;;;;;;0.90;0.30;;;24.40;92.20;;;;;;4993358;28;20035;-74
2022/08/03 07:30:24;;;;;;;0.20;0.20;;;24.50;91.60;;;;;;4992905;28;20089;-72
2022/08/03 07:32:50;;;;;;;0.10;0.03;;;24.60;91.50;;;;;;4992784;28;20033;-73
2022/08/03 07:35:15;;;;;;;0.00;0.00;;;24.70;91.80;;;;;;5008251;28;20105;-73
2022/08/03 07:37:41;;;;;;;0.17;0.17;;;24.80;91.50;;;;;;4992556;28;20037;-74
2022/08/03 07:40:07;;;;;;;0.70;0.55;;;24.90;90.70;;;;;;4992519;28;20088;-72
2022/08/03 07:42:33;;;;;;;0.35;0.35;;;25.00;91.00;;;;;;4991534;28;20030;-73
2022/08/03 07:44:59;;;;;;;0.52;0.52;;;25.10;91.00;;;;;;4992827;28;20045;-73
2022/08/03 07:47:30;;;;;;;0.17;0.13;;;25.30;90.90;;;;;;4975539;28;20050;-74
2022/08/03 07:49:56;;;;;;;;;;;25.40;90.50;;;;;;4991782;28;20026;-73
2022/08/03 07:55:07;;;;;;;0.10;0.10;;;25.60;90.50;;;;;;4987478;28;20034;-73
2022/08/03 07:57:34;;;;;;;0.40;0.35;;;25.70;90.40;;;;;;4991444;28;20026;-73
2022/08/03 08:00:00;;;;;;;0.10;0.05;;;25.80;88.70;;;;;;4990480;28;20057;-73
2022/08/03 08:02:26;;;;;;;0.20;0.20;;;25.80;87.90;;;;;;4991147;28;20054;-73
2022/08/03 08:04:52;;;;;;;7.88;2.15;;;25.80;88.90;;;;;;4991773;28;20034;-73
2022/08/03 08:07:17;;;;;;;0.88;0.45;;;25.90;88.50;;;;;;4991103;28;20513;-73
2022/08/03 08:09:43;;;;;;;32.22;0.85;;;26.00;88.20;;;;;;4991833;28;20057;-73
2022/08/03 08:12:11;;;;;;;0.00;0.00;;;26.10;87.40;;;;;;4990948;28;20042;-73
2022/08/03 08:14:37;;;;;;;3.53;0.65;;;26.20;87.20;;;;;;4992029;28;20026;-73
2022/08/03 08:17:03;;;;;;;1.20;0.68;;;26.30;86.40;;;;;;4992283;28;20045;-73
2022/08/03 08:19:28;;;;;;;0.00;0.00;;;26.40;86.00;;;;;;4991730;28;20566;-73
2022/08/03 08:21:54;;;;;;;0.20;0.20;;;26.50;85.20;;;;;;4992405;28;20038;-72
2022/08/03 08:24:20;;;;;;;4.40;2.40;;;26.60;85.00;;;;;;4992092;28;20027;-70
2022/08/03 08:26:45;;;;;;;1.95;0.77;;;26.70;84.80;;;;;;4990017;28;20043;-70
2022/08/03 08:29:11;;;;;;;6.65;0.85;;;26.80;84.50;;;;;;4991808;28;20030;-69
2022/08/03 08:31:37;;;;;;;0.00;0.00;;;26.80;83.90;;;;;;4974664;28;20027;-68
2022/08/03 08:34:04;;;;;;;0.40;0.20;;;26.90;83.50;;;;;;4972541;28;20062;-68
2022/08/03 08:36:34;;;;;;;0.00;0.00;;;27.00;83.60;;;;;;4972425;28;20035;-68
2022/08/03 08:39:00;;;;;;;0.13;0.13;;;27.10;83.50;;;;;;4987633;28;20041;-68
2022/08/03 08:41:27;;;;;;;0.68;0.63;;;27.20;82.80;;;;;;4972539;28;20391;-67
2022/08/03 08:43:53;;;;;;;3.78;0.98;;;27.30;82.90;;;;;;4987307;28;20125;-67
2022/08/03 08:46:20;;;;;;;0.13;0.10;;;27.40;81.90;;;;;;4977898;28;20049;-67
2022/08/03 08:48:47;;;;;;;0.30;0.25;;;27.50;82.60;;;;;;4991070;28;20027;-68
2022/08/03 08:51:15;;;;;;;0.10;0.10;;;27.60;82.00;;;;;;4990725;28;20026;-68
2022/08/03 08:53:44;;;;;;;4.40;0.80;;;27.70;81.40;;;;;;4990396;28;20033;-63
2022/08/03 08:56:15;;;;;;;0.22;0.15;;;27.90;80.60;;;;;;4991548;28;20498;-64
2022/08/03 08:58:50;;;;;;;0.75;0.22;;;28.10;80.10;;;;;;4990194;28;20525;-63
2022/08/03 09:01:18;;;;;;;0.10;0.10;;;28.30;80.50;;;;;;4990384;28;20038;-60
2022/08/03 09:03:45;;;;;;;0.22;0.22;;;28.30;79.50;;;;;;4990264;28;20125;-71
2022/08/03 09:06:11;;;;;;;0.00;0.00;;;28.40;78.20;;;;;;4990651;28;20487;-72
2022/08/03 09:08:37;;;;;;;0.13;0.10;;;28.40;78.70;;;;;;4992149;28;20077;-72
2022/08/03 09:11:03;;;;;;;0.30;0.30;;;28.50;78.30;;;;;;4990225;28;20018;-62
2022/08/03 09:13:29;;;;;;;0.00;0.00;;;28.60;77.50;;;;;;4991291;28;20117;-63
2022/08/03 09:16:17;;;;;;;0.13;0.13;;;28.70;77.20;;;;;;4989934;28;20438;-62
2022/08/03 09:18:49;;;;;;;0.40;0.30;;;28.80;77.70;;;;;;4991356;28;20027;-64
2022/08/03 09:21:24;;;;;;;0.55;0.55;;;29.00;76.90;;;;;;4991304;28;20521;-64
2022/08/03 09:23:56;;;;;;;1.10;0.73;;;29.10;76.00;;;;;;4991225;28;20034;-61
2022/08/03 09:26:30;;;;;;;2.58;0.93;;;29.20;76.70;;;;;;4989739;28;20105;-63
2022/08/03 09:29:07;;;;;;;1.23;0.45;;;29.50;75.40;;;;;;4991207;28;20030;-63
2022/08/03 09:31:39;;;;;;;0.10;0.00;;;29.30;74.80;;;;;;4991562;28;20030;-62
2022/08/03 09:34:09;;;;;;;0.00;0.00;;;29.40;74.90;;;;;;4990120;28;20096;-62
2022/08/03 09:36:42;;;;;;;1.00;0.20;;;29.40;74.60;;;;;;4991430;28;20490;-63
2022/08/03 09:39:20;;;;;;;0.55;0.43;;;29.60;74.50;;;;;;4991046;28;20487;-63
2022/08/03 09:42:03;;;;;;;0.15;0.15;;;29.70;75.60;;;;;;4990135;28;20056;-63
2022/08/03 09:44:41;;;;;;;0.20;0.10;;;29.80;74.70;;;;;;4991265;28;20116;-63
2022/08/03 09:47:11;;;;;;;0.20;0.20;;;29.90;73.70;;;;;;4991309;28;20061;-63
2022/08/03 09:49:40;;;;;;;1.13;1.00;;;29.90;73.20;;;;;;4990843;28;20105;-64
2022/08/03 09:52:22;;;;;;;0.25;0.20;;;30.00;73.00;;;;;;4989938;28;20166;-63
2022/08/03 09:54:51;;;;;;;2.75;1.60;;;30.10;73.20;;;;;;4989863;28;20142;-63
2022/08/03 09:57:22;;;;;;;0.98;0.65;;;30.10;73.60;;;;;;4991088;28;20384;-63
2022/08/03 09:59:50;;;;;;;0.00;0.00;;;30.30;73.70;;;;;;4990641;28;20045;-63
2022/08/03 10:02:25;;;;;;;0.00;0.00;;;30.50;73.60;;;;;;4993980;28;20034;-63
2022/08/03 10:04:53;;;;;;;0.50;0.50;;;30.60;72.90;;;;;;4994923;28;20031;-63
2022/08/03 10:07:22;;;;;;;0.43;0.32;;;30.70;72.50;;;;;;4994962;28;20078;-63
2022/08/03 10:09:59;;;;;;;0.23;0.20;;;30.90;72.00;;;;;;4994249;28;20027;-69
2022/08/03 10:12:26;;;;;;;0.00;0.00;;;30.80;72.20;;;;;;4993204;28;20030;-70
2022/08/03 10:14:54;;;;;;;0.00;0.00;;;30.80;71.50;;;;;;4993262;28;20041;-70
2022/08/03 10:17:21;;;;;;;0.20;0.20;;;30.80;71.80;;;;;;4992834;28;20029;-70
2022/08/03 10:19:48;;;;;;;0.75;0.65;;;31.10;71.80;;;;;;4993387;28;20055;-70
2022/08/03 10:22:22;;;;;;;0.00;0.00;;;31.10;71.70;;;;;;4992810;28;20030;-70
2022/08/03 10:25:02;;;;;;;0.00;0.00;;;31.10;72.00;;;;;;4994252;28;20035;-72
2022/08/03 10:27:37;;;;;;;0.73;0.30;;;31.50;71.50;;;;;;4994106;28;20022;-71
2022/08/03 10:30:09;;;;;;;0.00;0.00;;;31.40;70.70;;;;;;4992338;28;20026;-73
2022/08/03 10:32:48;;;;;;;0.52;0.43;;;31.60;71.10;;;;;;4976352;28;20092;-70
2022/08/03 10:35:19;;;;;;;2.50;1.02;;;31.80;70.10;;;;;;4987104;28;20026;-69
2022/08/03 10:37:58;;;;;;;0.00;0.00;;;32.10;69.70;;;;;;4974880;28;20066;-69
2022/08/03 10:40:27;;;;;;;0.32;0.28;;;32.10;69.70;;;;;;4988855;28;20137;-69
2022/08/03 10:43:00;;;;;;;0.20;0.20;;;32.20;69.50;;;;;;4989087;28;20031;-72
2022/08/03 10:45:27;;;;;;;1.65;0.73;;;32.20;70.30;;;;;;4989298;28;20122;-71
2022/08/03 10:47:55;;;;;;;0.00;0.00;;;32.00;69.00;;;;;;4989083;28;20042;-71
2022/08/03 10:50:25;;;;;;;0.03;0.03;;;31.90;68.70;;;;;;4973733;28;20034;-70
2022/08/03 10:52:59;;;;;;;0.75;0.60;;;32.00;68.50;;;;;;4972803;28;20598;-71
2022/08/03 10:58:56;;;;;;;5.05;0.32;;;31.90;68.40;;;;;;4973264;28;20039;-71
2022/08/03 11:01:53;;;;;;;0.10;0.10;;;32.10;69.40;;;;;;4970017;28;20403;-72
2022/08/03 11:04:23;;;;;;;0.40;0.40;;;32.50;68.80;;;;;;4973858;28;20066;-72
2022/08/03 11:07:21;;;;;;;0.00;0.00;;;32.90;68.60;;;;;;4973861;28;20436;-70
2022/08/03 11:09:56;;;;;;;0.17;0.17;;;32.50;67.70;;;;;;4973568;28;20043;-68
2022/08/03 11:12:26;;;;;;;1.67;0.55;;;32.60;67.70;;;;;;4972908;28;20435;-68
2022/08/03 11:14:54;;;;;;;0.00;0.00;;;32.90;68.10;;;;;;4972901;28;20390;-68
2022/08/03 11:17:20;;;;;;;1.77;0.43;;;33.20;67.70;;;;;;4987013;28;20038;-68
2022/08/03 11:19:49;;;;;;;0.52;0.30;;;33.10;68.60;;;;;;4991480;28;20044;-68
2022/08/03 11:22:17;;;;;;;2.00;0.65;;;32.90;70.00;;;;;;4991750;28;20061;-68
2022/08/03 11:24:42;;;;;;;0.20;0.20;;;32.50;68.50;;;;;;4993170;28;20077;-68
2022/08/03 11:27:15;;;;;;;0.15;0.15;;;33.00;70.90;;;;;;4993130;28;20035;-68
2022/08/03 11:30:00;;;;;;;0.13;0.13;;;32.80;68.90;;;;;;4992812;28;20038;-68
2022/08/03 11:32:43;;;;;;;0.30;0.20;;;33.00;68.70;;;;;;4992313;28;20461;-68
2022/08/03 11:35:15;;;;;;;0.30;0.15;;;33.40;68.80;;;;;;4993184;28;20038;-69
2022/08/03 11:38:00;;;;;;;0.10;0.10;;;33.70;68.70;;;;;;4975366;28;20448;-69
2022/08/03 11:40:52;;;;;;;0.60;0.40;;;33.80;67.70;;;;;;4992492;28;20088;-69
2022/08/03 11:43:21;;;;;;;0.00;0.00;;;33.70;67.40;;;;;;4992518;28;20035;-68
2022/08/03 11:46:21;;;;;;;0.55;0.47;;;33.60;67.60;;;;;;4992655;28;20031;-68
2022/08/03 11:48:49;;;;;;;0.20;0.13;;;33.80;67.50;;;;;;4991511;28;20065;-68
2022/08/03 11:51:37;;;;;;;0.25;0.25;;;33.90;67.00;;;;;;4993031;28;20030;-68
2022/08/03 11:54:05;;;;;;;0.52;0.38;;;34.10;66.90;;;;;;4992331;28;20427;-68
2022/08/03 11:56:49;;;;;;;0.00;0.00;;;34.20;66.60;;;;;;4991170;28;20039;-69
2022/08/03 11:59:18;;;;;;;0.30;0.08;;;34.30;65.50;;;;;;4991043;28;20064;-68
2022/08/03 12:01:44;;;;;;;0.10;0.10;;;33.90;64.10;;;;;;4992578;28;20037;-68
2022/08/03 12:04:10;;;;;;;0.00;0.00;;;34.30;65.10;;;;;;4992441;28;20076;-68
2022/08/03 12:06:54;;;;;;;0.43;0.00;;;34.40;64.80;;;;;;4974996;28;20035;-69
2022/08/03 12:09:20;;;;;;;0.80;0.63;;;34.60;64.30;;;;;;4992038;28;20034;-69
2022/08/03 12:11:50;;;;;;;0.10;0.10;;;34.50;63.70;;;;;;4992771;28;20026;-68
2022/08/03 12:14:17;;;;;;;0.00;0.00;;;34.90;64.30;;;;;;4990228;28;20022;-68
2022/08/03 12:16:47;;;;;;;0.10;0.08;;;35.10;63.80;;;;;;4983689;28;20092;-69
2022/08/03 12:19:14;;;;;;;0.20;0.15;;;35.00;63.40;;;;;;4955164;28;20035;-69
2022/08/03 12:21:49;;;;;;;0.22;0.22;;;35.00;62.70;;;;;;4971914;28;20049;-67
2022/08/03 12:24:16;;;;;;;0.85;0.65;;;35.00;63.60;;;;;;4971396;28;20046;-68
2022/08/03 12:26:50;;;;;;;1.25;0.75;;;35.00;63.30;;;;;;4987772;28;20031;-67
2022/08/03 12:29:18;;;;;;;1.38;0.65;;;34.90;62.00;;;;;;4971193;28;20435;-66
2022/08/03 12:31:44;;;;;;;0.00;0.00;;;35.20;61.60;;;;;;4972341;28;20109;-65
2022/08/03 12:34:10;;;;;;;0.77;0.40;;;35.40;61.50;;;;;;4971117;28;20046;-66
2022/08/03 12:36:37;;;;;;;0.52;0.35;;;34.60;63.20;;;;;;4972637;28;20502;-65
2022/08/03 12:39:06;;;;;;;0.25;0.22;;;34.80;62.20;;;;;;4971118;28;20168;-66
2022/08/03 12:41:37;;;;;;;2.92;0.52;;;35.10;61.90;;;;;;4972553;28;20049;-66
2022/08/03 12:44:06;;;;;;;0.00;0.00;;;35.20;61.30;;;;;;4971235;28;20038;-66
2022/08/03 12:46:41;;;;;;;0.43;0.40;;;35.20;60.60;;;;;;4980879;28;20140;-67
2022/08/03 12:49:18;;;;;;;0.38;0.28;;;35.10;60.60;;;;;;4974222;28;20045;-67
2022/08/03 12:51:44;;;;;;;0.10;0.10;;;35.10;60.20;;;;;;4990601;28;20034;-66
2022/08/03 12:54:18;;;;;;;0.05;0.05;;;35.10;60.60;;;;;;4991495;28;20049;-66
2022/08/03 12:57:06;;;;;;;0.10;0.10;;;35.40;61.00;;;;;;4990636;28;20034;-66
2022/08/03 12:59:47;;;;;;;0.20;0.10;;;35.40;59.30;;;;;;4974347;28;20084;-66
2022/08/03 13:02:24;;;;;;;0.45;0.45;;;35.70;59.60;;;;;;4990419;28;20026;-66
2022/08/03 13:04:52;;;;;;;0.35;0.35;;;36.20;60.00;;;;;;4990042;28;20030;-66
2022/08/03 13:07:19;;;;;;;0.30;0.30;;;36.40;59.20;;;;;;4991780;28;20037;-66
2022/08/03 13:09:48;;;;;;;0.10;0.10;;;36.10;59.30;;;;;;4989953;28;20062;-66
2022/08/03 13:12:26;;;;;;;0.10;0.10;;;36.60;59.60;;;;;;4991285;28;20033;-66